Time;durP1;ratioP1;P1;durP2;ratioP2;P2;SDS_P1;SDS_P2;PMS_P1;PMS_P2;Temp;Humidity;BMP_temperature;BMP_pressure;BME280_temperature;BME280_humidity;BME280_pressure;Samples;Min_cycle;Max_cycle;Signal;HPM_P1;HPM_P2
2024/04/07 00:00:23;;;;;;;12.77;3.20;;;;;;;15.58;87.99;100856.09;4993383;28;20320;-65
2024/04/07 00:02:50;;;;;;;9.80;2.05;;;;;;;15.62;88.07;100854.94;4993670;28;20656;-65
2024/04/07 00:05:15;;;;;;;11.13;2.15;;;;;;;15.51;89.93;100863.72;4993256;28;20645;-66
2024/04/07 00:07:41;;;;;;;9.13;2.15;;;;;;;15.44;91.04;100864.22;4993436;28;20189;-65
2024/04/07 00:10:06;;;;;;;13.32;3.13;;;;;;;15.43;91.67;100875.97;4993509;28;20186;-65
2024/04/07 00:12:31;;;;;;;9.90;2.70;;;;;;;14.95;95.45;100863.59;4993448;28;20197;-65
2024/04/07 00:14:57;;;;;;;10.45;2.38;;;;;;;15.04;95.83;100866.66;4993075;28;20186;-65
2024/04/07 00:17:22;;;;;;;10.93;2.60;;;;;;;14.93;96.80;100888.91;4993186;28;20265;-64
2024/04/07 00:19:47;;;;;;;14.02;2.08;;;;;;;14.79;98.27;100870.84;4992975;28;20244;-64
2024/04/07 00:22:13;;;;;;;11.10;2.90;;;;;;;14.74;99.32;100886.47;4993304;28;20189;-64
2024/04/07 00:24:38;;;;;;;10.80;2.45;;;;;;;14.83;99.03;100894.00;4993334;28;20288;-65
2024/04/07 00:27:04;;;;;;;11.48;2.00;;;;;;;14.85;98.44;100900.16;4993793;28;20236;-65
2024/04/07 00:29:29;;;;;;;10.95;2.80;;;;;;;14.73;99.61;100911.69;4993423;28;20554;-65
2024/04/07 00:31:54;;;;;;;13.05;2.20;;;;;;;14.66;100.00;100913.03;4993326;28;20244;-65
2024/04/07 00:34:20;;;;;;;6.70;2.40;;;;;;;14.51;100.00;100902.13;4992878;28;20209;-65
2024/04/07 00:36:45;;;;;;;11.30;2.33;;;;;;;14.48;100.00;100915.78;4992933;28;20233;-64
2024/04/07 00:39:12;;;;;;;15.10;3.30;;;;;;;14.69;100.00;100916.41;4992950;28;20209;-65
2024/04/07 00:41:37;;;;;;;14.02;2.40;;;;;;;14.36;100.00;100922.75;4994975;28;20629;-67
2024/04/07 00:44:03;;;;;;;12.35;2.70;;;;;;;14.24;100.00;100928.84;4996690;28;20214;-64
2024/04/07 00:46:29;;;;;;;13.55;2.40;;;;;;;14.25;100.00;100938.69;4996996;28;20186;-64
2024/04/07 00:48:55;;;;;;;9.30;1.70;;;;;;;14.23;100.00;100935.22;4996690;28;20248;-64
2024/04/07 00:51:20;;;;;;;15.10;3.90;;;;;;;14.24;100.00;100929.75;4996897;28;20189;-64
2024/04/07 00:53:46;;;;;;;11.55;2.78;;;;;;;14.13;100.00;100942.06;4996662;28;20628;-66
2024/04/07 00:56:11;;;;;;;11.00;2.72;;;;;;;14.15;100.00;100945.53;4996490;28;20185;-64
2024/04/07 00:58:37;;;;;;;12.48;2.40;;;;;;;14.05;100.00;100937.09;4995037;28;20216;-65
2024/04/07 01:01:02;;;;;;;8.95;2.13;;;;;;;14.25;100.00;100965.63;4995378;28;20564;-65
2024/04/07 01:03:27;;;;;;;11.85;2.63;;;;;;;14.03;100.00;100964.13;4978838;28;20197;-64
2024/04/07 01:05:53;;;;;;;9.48;1.90;;;;;;;14.08;100.00;100975.50;4996471;28;20197;-64
2024/04/07 01:08:18;;;;;;;13.40;2.17;;;;;;;13.96;100.00;100978.03;4996117;28;20197;-64
2024/04/07 01:10:49;;;;;;;7.82;1.75;;;;;;;13.61;100.00;100975.41;4996467;28;20625;-66
2024/04/07 01:13:14;;;;;;;11.95;2.47;;;;;;;13.44;100.00;100973.63;4996049;28;20264;-66
2024/04/07 01:15:40;;;;;;;9.73;2.78;;;;;;;13.58;100.00;100962.13;4995106;28;20301;-65
2024/04/07 01:18:05;;;;;;;8.00;2.50;;;;;;;13.59;100.00;100956.66;4996028;28;20225;-64
2024/04/07 01:20:32;;;;;;;8.43;2.60;;;;;;;13.49;100.00;100937.47;4994915;28;20217;-67
2024/04/07 01:22:57;;;;;;;10.98;1.40;;;;;;;13.43;100.00;100940.47;4995916;28;20197;-66
2024/04/07 01:25:23;;;;;;;7.82;1.65;;;;;;;13.51;100.00;100953.53;4979461;28;20190;-66
2024/04/07 01:27:59;;;;;;;12.10;1.63;;;;;;;13.60;100.00;100947.66;4996108;28;20197;-66
2024/04/07 01:30:26;;;;;;;16.85;2.25;;;;;;;13.56;100.00;100925.38;4979151;28;20185;-66
2024/04/07 01:32:51;;;;;;;4.38;1.75;;;;;;;13.63;100.00;100916.97;4995098;28;20185;-66
2024/04/07 01:35:16;;;;;;;12.02;1.73;;;;;;;13.59;100.00;100904.66;4996387;28;20173;-66
2024/04/07 01:37:42;;;;;;;12.73;2.00;;;;;;;13.62;100.00;100891.03;4995978;28;20202;-64
2024/04/07 01:40:11;;;;;;;8.38;1.35;;;;;;;13.55;100.00;100896.75;4996347;28;20216;-67
2024/04/07 01:42:38;;;;;;;6.25;1.65;;;;;;;13.54;100.00;100870.78;4996581;28;20260;-65
2024/04/07 01:45:04;;;;;;;4.90;1.42;;;;;;;13.66;100.00;100893.47;4984949;28;20282;-65
2024/04/07 01:47:29;;;;;;;7.18;1.45;;;;;;;13.63;100.00;100904.41;4993803;28;20245;-65
2024/04/07 01:49:55;;;;;;;4.20;1.38;;;;;;;13.57;100.00;100888.59;4996149;28;20197;-64
2024/04/07 01:52:20;;;;;;;5.65;1.45;;;;;;;13.70;100.00;100897.72;4996076;28;20178;-65
2024/04/07 01:54:46;;;;;;;7.57;1.38;;;;;;;13.69;100.00;100898.69;4996086;28;20174;-64
2024/04/07 01:57:11;;;;;;;9.15;1.95;;;;;;;13.58;100.00;100887.63;4995896;28;20266;-65
2024/04/07 01:59:37;;;;;;;8.85;1.58;;;;;;;13.68;100.00;100885.31;4994546;28;20268;-65
2024/04/07 02:02:02;;;;;;;8.50;2.25;;;;;;;13.68;100.00;100890.69;4994710;28;20628;-65
2024/04/07 02:04:28;;;;;;;3.72;1.13;;;;;;;13.57;100.00;100850.91;4994730;28;20405;-65
2024/04/07 02:06:54;;;;;;;5.50;1.17;;;;;;;13.67;100.00;100859.34;4995501;28;20224;-65
2024/04/07 02:09:20;;;;;;;5.88;1.50;;;;;;;13.70;100.00;100867.25;4995773;28;20196;-65
2024/04/07 02:11:46;;;;;;;6.25;1.40;;;;;;;13.89;100.00;100916.44;4995550;28;20568;-65
2024/04/07 02:14:12;;;;;;;6.28;1.65;;;;;;;14.06;100.00;100925.41;4995895;28;20261;-65
2024/04/07 02:16:37;;;;;;;4.55;1.55;;;;;;;14.10;100.00;100924.25;4995628;28;20593;-65
2024/04/07 02:19:03;;;;;;;8.50;1.73;;;;;;;14.04;100.00;100903.03;4985924;28;20261;-65
2024/04/07 02:21:28;;;;;;;3.13;1.45;;;;;;;13.97;100.00;100902.53;4979528;28;20188;-65
2024/04/07 02:23:53;;;;;;;4.65;1.40;;;;;;;14.05;100.00;100884.09;4995408;28;20194;-65
2024/04/07 02:26:19;;;;;;;6.88;2.28;;;;;;;14.16;100.00;100874.53;4983031;28;20217;-64
2024/04/07 02:28:44;;;;;;;5.93;1.55;;;;;;;14.13;100.00;100872.03;4986798;28;20179;-65
2024/04/07 02:31:09;;;;;;;3.45;1.10;;;;;;;14.34;100.00;100886.09;4992103;28;20182;-65
2024/04/07 02:33:36;;;;;;;2.13;1.05;;;;;;;14.37;99.84;100899.38;4995173;28;20217;-66
2024/04/07 02:36:01;;;;;;;2.50;0.82;;;;;;;14.56;98.84;100888.38;4995202;28;20210;-65
2024/04/07 02:38:26;;;;;;;3.63;0.93;;;;;;;14.46;98.60;100901.53;4984532;28;20206;-65
2024/04/07 02:40:52;;;;;;;2.83;0.88;;;;;;;14.58;98.85;100900.81;4992028;28;20179;-65
2024/04/07 02:43:17;;;;;;;4.38;1.63;;;;;;;14.53;99.28;100888.56;4986073;28;20182;-65
2024/04/07 02:48:26;;;;;;;3.50;1.05;;;;;;;14.40;98.33;100856.09;4987892;28;20683;-64
2024/04/07 02:50:53;;;;;;;6.28;1.05;;;;;;;14.67;97.51;100888.66;4982307;28;20205;-64
2024/04/07 02:53:18;;;;;;;5.28;0.98;;;;;;;14.68;97.83;100897.63;4995112;28;20182;-65
2024/04/07 02:55:44;;;;;;;3.28;0.90;;;;;;;14.62;97.15;100899.72;4994877;28;20247;-64
2024/04/07 02:58:09;;;;;;;3.95;1.10;;;;;;;14.68;96.44;100895.78;4995040;28;20626;-64
2024/04/07 03:00:35;;;;;;;3.97;1.42;;;;;;;14.82;95.34;100894.09;4994684;28;20249;-66
2024/04/07 03:03:00;;;;;;;2.97;1.20;;;;;;;14.74;95.41;100889.16;4994904;28;20173;-65
2024/04/07 03:05:25;;;;;;;2.17;1.00;;;;;;;14.71;95.22;100919.00;4994472;28;20648;-65
2024/04/07 03:07:51;;;;;;;6.00;1.15;;;;;;;14.70;95.90;100928.03;4994783;28;20181;-65
2024/04/07 03:10:16;;;;;;;2.63;0.98;;;;;;;14.63;96.45;100930.25;4994494;28;20190;-65
2024/04/07 03:12:43;;;;;;;5.78;1.13;;;;;;;14.73;96.29;100935.94;4994844;28;20655;-64
2024/04/07 03:15:08;;;;;;;2.60;1.00;;;;;;;14.72;96.41;100937.78;4993278;28;20182;-64
2024/04/07 03:17:34;;;;;;;3.42;1.20;;;;;;;14.79;96.54;100943.66;4994438;28;20196;-65
2024/04/07 03:19:59;;;;;;;3.53;1.08;;;;;;;14.72;96.25;100927.00;4994267;28;20229;-65
2024/04/07 03:22:25;;;;;;;3.20;1.08;;;;;;;14.69;97.63;100945.19;4994120;28;20186;-65
2024/04/07 03:24:50;;;;;;;8.90;1.42;;;;;;;14.89;96.34;100939.47;4994377;28;20216;-65
2024/04/07 03:27:16;;;;;;;8.95;1.20;;;;;;;14.77;96.40;100940.22;4994266;28;20182;-65
2024/04/07 03:29:41;;;;;;;5.05;1.75;;;;;;;14.84;96.61;100941.59;4993289;28;20201;-65
2024/04/07 03:32:06;;;;;;;5.53;1.80;;;;;;;14.91;96.02;100926.75;4994056;28;20212;-65
2024/04/07 03:34:32;;;;;;;6.38;1.20;;;;;;;14.95;95.70;100932.84;4994305;28;20189;-67
2024/04/07 03:36:57;;;;;;;5.70;1.60;;;;;;;14.97;96.04;100952.50;4992645;28;20656;-65
2024/04/07 03:39:22;;;;;;;7.65;1.60;;;;;;;15.09;95.10;100950.91;4994095;28;20297;-65
2024/04/07 03:41:48;;;;;;;5.55;1.50;;;;;;;14.97;94.76;100964.16;4994250;28;20628;-65
2024/04/07 03:44:13;;;;;;;3.85;2.05;;;;;;;15.03;94.65;100954.84;4984583;28;20237;-65
2024/04/07 03:46:39;;;;;;;7.07;1.83;;;;;;;15.00;94.64;100941.53;4991617;28;20186;-65
2024/04/07 03:49:04;;;;;;;7.28;1.42;;;;;;;15.01;94.49;100966.66;4992832;28;20178;-65
2024/04/07 03:51:30;;;;;;;5.72;1.38;;;;;;;14.70;94.17;100945.09;4979920;28;20663;-65
2024/04/07 03:53:56;;;;;;;2.47;1.30;;;;;;;15.06;93.55;100975.38;4992839;28;20892;-65
2024/04/07 03:56:21;;;;;;;2.20;1.10;;;;;;;15.02;93.40;100995.41;4993865;28;20651;-65
2024/04/07 03:58:46;;;;;;;6.57;1.33;;;;;;;15.02;93.25;100987.31;4993970;28;20284;-65
2024/04/07 04:01:13;;;;;;;4.05;1.13;;;;;;;15.04;92.42;100999.75;4993727;28;20680;-65
2024/04/07 04:03:40;;;;;;;6.75;2.13;;;;;;;14.97;92.41;100990.28;4984186;28;20324;-65
2024/04/07 04:06:06;;;;;;;3.85;1.73;;;;;;;14.95;92.57;101003.84;4989905;28;21263;-65
2024/04/07 04:08:31;;;;;;;6.90;1.73;;;;;;;15.08;91.88;101008.53;4976047;28;20193;-65
2024/04/07 04:10:57;;;;;;;9.88;1.27;;;;;;;15.02;91.92;101016.97;4994123;28;20178;-65
2024/04/07 04:13:22;;;;;;;4.97;1.27;;;;;;;15.08;92.16;101022.88;4980807;28;20181;-65
2024/04/07 04:15:47;;;;;;;5.95;1.33;;;;;;;15.05;92.59;101020.34;4994163;28;20640;-66
2024/04/07 04:18:13;;;;;;;9.10;1.50;;;;;;;14.93;93.96;101046.25;4997594;28;20533;-65
2024/04/07 04:20:41;;;;;;;3.08;1.05;;;;;;;14.63;95.15;101009.28;4997176;28;20189;-65
2024/04/07 04:23:07;;;;;;;3.72;1.20;;;;;;;14.56;96.68;101004.31;4997463;28;20248;-65
2024/04/07 04:25:33;;;;;;;10.23;2.13;;;;;;;14.39;97.73;101007.97;4997685;28;20186;-65
2024/04/07 04:27:58;;;;;;;9.27;2.35;;;;;;;14.31;99.02;101023.69;4971907;28;20244;-65
2024/04/07 04:30:24;;;;;;;8.27;1.75;;;;;;;14.17;99.87;101032.53;5000853;28;20707;-64
2024/04/07 04:32:49;;;;;;;5.43;1.83;;;;;;;14.12;100.00;101023.81;4997645;28;20189;-64
2024/04/07 04:35:15;;;;;;;8.15;1.98;;;;;;;14.20;99.70;101027.84;4997257;28;20174;-65
2024/04/07 04:37:40;;;;;;;10.52;3.28;;;;;;;14.12;100.00;101031.91;4995766;28;20212;-65
2024/04/07 04:40:10;;;;;;;7.43;1.83;;;;;;;14.11;100.00;101027.50;4995396;28;20220;-65
2024/04/07 04:42:35;;;;;;;13.40;2.13;;;;;;;14.04;100.00;101033.22;4994839;28;20261;-66
2024/04/07 04:45:01;;;;;;;6.13;2.20;;;;;;;14.00;100.00;101042.41;4994240;28;20692;-64
2024/04/07 04:47:26;;;;;;;11.02;2.60;;;;;;;13.99;100.00;101034.41;4994478;28;20253;-65
2024/04/07 04:49:52;;;;;;;5.90;1.80;;;;;;;13.92;100.00;101028.50;4996041;28;20194;-64
2024/04/07 04:52:17;;;;;;;10.02;2.17;;;;;;;13.72;100.00;101041.22;4996165;28;20178;-66
2024/04/07 04:54:42;;;;;;;8.43;1.67;;;;;;;13.69;100.00;101051.25;4996556;28;20264;-66
2024/04/07 04:57:07;;;;;;;13.00;2.28;;;;;;;13.65;100.00;101057.75;4996461;28;20213;-65
2024/04/07 04:59:33;;;;;;;5.68;1.67;;;;;;;13.64;100.00;101056.00;4995811;28;20241;-65
2024/04/07 05:01:58;;;;;;;10.55;2.10;;;;;;;13.55;100.00;101071.72;4994907;28;20189;-65
2024/04/07 05:04:24;;;;;;;9.20;2.78;;;;;;;13.67;100.00;101061.25;4995206;28;20617;-64
2024/04/07 05:06:50;;;;;;;15.40;2.30;;;;;;;13.43;100.00;101056.19;4976972;28;20182;-64
2024/04/07 05:09:15;;;;;;;8.30;1.95;;;;;;;13.36;100.00;101068.22;4994905;28;20236;-64
2024/04/07 05:11:40;;;;;;;13.85;2.50;;;;;;;13.30;100.00;101071.19;4994620;28;20190;-65
2024/04/07 05:14:06;;;;;;;8.48;2.15;;;;;;;13.29;100.00;101093.66;4994319;28;20284;-67
2024/04/07 05:16:32;;;;;;;9.82;2.65;;;;;;;13.31;100.00;101081.00;4994732;28;20178;-68
2024/04/07 05:18:57;;;;;;;9.18;2.53;;;;;;;13.25;100.00;101084.00;4994219;28;20301;-67
2024/04/07 05:21:22;;;;;;;10.95;2.63;;;;;;;13.23;100.00;101083.19;4993913;28;20209;-65
2024/04/07 05:23:49;;;;;;;19.50;3.00;;;;;;;13.33;100.00;101095.25;4994637;28;20286;-65
2024/04/07 05:26:18;;;;;;;7.95;2.22;;;;;;;13.19;100.00;101088.72;4992322;28;20343;-66
2024/04/07 05:28:44;;;;;;;12.05;2.17;;;;;;;13.28;100.00;101103.53;4977725;28;20656;-65
2024/04/07 05:31:13;;;;;;;10.35;2.70;;;;;;;13.27;100.00;101098.25;4976939;28;20186;-65
2024/04/07 05:33:43;;;;;;;15.38;3.47;;;;;;;13.26;100.00;101104.56;4994416;28;20201;-65
2024/04/07 05:36:08;;;;;;;14.43;3.03;;;;;;;13.12;100.00;101103.41;4993862;28;20304;-65
2024/04/07 05:38:34;;;;;;;15.15;3.13;;;;;;;13.05;100.00;101123.53;4994577;28;20296;-65
2024/04/07 05:41:00;;;;;;;18.55;3.47;;;;;;;13.05;100.00;101118.13;4994601;28;20644;-68
2024/04/07 05:43:25;;;;;;;16.15;2.58;;;;;;;12.89;100.00;101111.75;4994236;28;20189;-65
2024/04/07 05:45:51;;;;;;;15.60;2.67;;;;;;;13.05;100.00;101123.53;4976710;28;20201;-65
2024/04/07 05:48:17;;;;;;;15.07;2.33;;;;;;;13.09;100.00;101121.53;4993011;28;20202;-66
2024/04/07 05:50:43;;;;;;;13.13;2.58;;;;;;;12.99;100.00;101116.59;4992720;28;20178;-67
2024/04/07 05:53:08;;;;;;;16.45;2.70;;;;;;;13.10;100.00;101132.22;4992200;28;20562;-64
2024/04/07 05:55:35;;;;;;;10.10;2.63;;;;;;;13.10;100.00;101116.09;4992703;28;20285;-66
2024/04/07 05:58:00;;;;;;;14.43;2.88;;;;;;;13.04;100.00;101129.84;4993775;28;20190;-66
2024/04/07 06:00:26;;;;;;;13.02;2.88;;;;;;;13.25;100.00;101135.97;4956085;28;1094310;-66
2024/04/07 06:02:52;;;;;;;8.75;1.92;;;;;;;13.27;100.00;101131.38;4995042;28;20229;-66
2024/04/07 06:05:17;;;;;;;8.35;2.60;;;;;;;13.37;100.00;101142.63;4995199;28;20609;-65
2024/04/07 06:07:42;;;;;;;7.40;2.03;;;;;;;13.27;100.00;101127.84;4993820;28;20181;-66
2024/04/07 06:10:08;;;;;;;9.43;1.63;;;;;;;13.30;100.00;101154.59;4995074;28;20189;-65
2024/04/07 06:12:33;;;;;;;9.57;2.22;;;;;;;13.25;100.00;101151.25;4995032;28;20192;-65
2024/04/07 06:14:59;;;;;;;8.38;1.70;;;;;;;13.20;100.00;101122.75;4995048;28;20186;-66
2024/04/07 06:17:24;;;;;;;8.68;2.58;;;;;;;13.27;100.00;101155.59;4995133;28;20194;-66
2024/04/07 06:19:49;;;;;;;10.57;2.13;;;;;;;13.25;100.00;101146.75;4993211;28;20210;-65
2024/04/07 06:22:15;;;;;;;13.23;2.83;;;;;;;13.42;100.00;101145.06;4994756;28;20190;-66
2024/04/07 06:24:40;;;;;;;13.63;2.40;;;;;;;13.37;100.00;101153.38;4994800;28;20178;-65
2024/04/07 06:27:05;;;;;;;10.73;2.25;;;;;;;13.32;100.00;101153.56;4994705;28;20641;-65
2024/04/07 06:29:31;;;;;;;19.02;2.20;;;;;;;13.37;100.00;101158.75;4976086;28;20650;-65
2024/04/07 06:31:57;;;;;;;12.57;3.13;;;;;;;13.36;100.00;101157.00;4994831;28;20197;-65
2024/04/07 06:34:22;;;;;;;11.77;2.10;;;;;;;13.42;100.00;101156.69;4976955;28;20557;-65
2024/04/07 06:36:47;;;;;;;13.27;2.65;;;;;;;13.35;100.00;101171.41;4994512;28;20216;-66
2024/04/07 06:39:13;;;;;;;20.30;2.50;;;;;;;13.39;100.00;101175.69;4993565;28;20221;-66
2024/04/07 06:41:38;;;;;;;16.73;3.03;;;;;;;13.37;100.00;101169.53;4983950;28;20197;-66
2024/04/07 06:44:04;;;;;;;12.68;2.92;;;;;;;13.27;100.00;101174.44;4994230;28;20186;-66
2024/04/07 06:46:30;;;;;;;18.23;3.30;;;;;;;13.34;100.00;101164.28;4994476;28;20659;-66
2024/04/07 06:48:55;;;;;;;14.20;2.90;;;;;;;13.41;100.00;101168.41;4994161;28;20229;-65
2024/04/07 06:51:20;;;;;;;19.20;3.75;;;;;;;13.48;100.00;101175.22;4994095;28;20201;-66
2024/04/07 06:53:47;;;;;;;20.55;4.18;;;;;;;13.34;100.00;101143.63;4992881;28;20193;-66
2024/04/07 06:56:12;;;;;;;14.00;2.78;;;;;;;13.63;100.00;101184.38;4994595;28;20182;-66
2024/04/07 06:58:37;;;;;;;13.90;2.88;;;;;;;13.72;100.00;101188.38;4993460;28;20213;-66
2024/04/07 07:01:03;;;;;;;13.13;2.75;;;;;;;13.89;97.42;101180.34;4994345;28;20186;-66
2024/04/07 07:03:28;;;;;;;11.85;3.58;;;;;;;13.91;96.33;101194.59;4992267;28;20198;-66
2024/04/07 07:05:54;;;;;;;14.73;2.58;;;;;;;14.15;92.98;101182.63;4992937;28;20264;-66
2024/04/07 07:08:19;;;;;;;13.00;2.58;;;;;;;14.59;90.63;101190.16;4992371;28;20240;-65
2024/04/07 07:11:01;;;;;;;9.75;1.80;;;;;;;14.96;87.14;101183.66;4993848;28;20178;-66
2024/04/07 07:13:27;;;;;;;17.95;2.63;;;;;;;15.73;84.55;101207.16;4977375;28;20174;-65
2024/04/07 07:15:53;;;;;;;12.32;2.70;;;;;;;15.96;83.78;101201.31;4992255;28;20201;-65
2024/04/07 07:18:19;;;;;;;10.65;2.45;;;;;;;16.22;82.16;101197.03;4993294;28;20206;-66
2024/04/07 07:20:44;;;;;;;13.52;2.13;;;;;;;16.23;81.49;101206.00;4993476;28;20289;-65
2024/04/07 07:23:10;;;;;;;13.70;3.03;;;;;;;16.48;79.18;101218.91;4993870;28;20260;-66
2024/04/07 07:25:35;;;;;;;15.30;2.35;;;;;;;16.81;78.02;101222.28;4994515;28;20252;-66
2024/04/07 07:28:00;;;;;;;17.27;3.22;;;;;;;16.74;76.87;101224.53;4994389;28;20237;-66
2024/04/07 07:30:26;;;;;;;9.93;2.00;;;;;;;16.93;75.80;101218.84;4995130;28;20640;-66
2024/04/07 07:32:51;;;;;;;12.05;2.22;;;;;;;16.95;75.78;101227.72;4994899;28;20209;-66
2024/04/07 07:35:16;;;;;;;15.40;2.40;;;;;;;17.18;74.84;101225.38;4994056;28;20190;-66
2024/04/07 07:37:42;;;;;;;18.25;2.03;;;;;;;17.32;72.91;101236.19;4993759;28;20274;-66
2024/04/07 07:40:08;;;;;;;14.35;3.63;;;;;;;17.31;73.30;101234.44;4993956;28;20213;-66
2024/04/07 07:42:34;;;;;;;16.60;2.60;;;;;;;17.30;72.71;101230.00;4993688;28;20232;-66
2024/04/07 07:44:59;;;;;;;13.77;3.05;;;;;;;17.57;72.85;101245.44;4995643;28;20182;-66
2024/04/07 07:47:25;;;;;;;11.02;2.28;;;;;;;17.70;71.92;101224.66;4995710;28;20209;-67
2024/04/07 07:49:50;;;;;;;13.43;2.50;;;;;;;17.70;71.73;101235.47;4989970;28;20233;-66
2024/04/07 07:52:17;;;;;;;15.82;2.75;;;;;;;17.58;72.13;101239.00;4997323;28;20188;-66
2024/04/07 07:54:42;;;;;;;14.13;2.55;;;;;;;17.83;71.35;101236.41;4995549;28;20177;-67
2024/04/07 07:57:08;;;;;;;10.63;2.00;;;;;;;17.86;70.66;101237.19;4993817;28;20182;-67
2024/04/07 07:59:33;;;;;;;11.52;2.65;;;;;;;17.68;70.03;101239.28;4993454;28;20245;-67
2024/04/07 08:01:58;;;;;;;12.85;2.05;;;;;;;17.71;71.99;101253.50;4993822;28;20281;-68
2024/04/07 08:04:24;;;;;;;11.02;2.08;;;;;;;17.40;72.23;101251.94;4993474;28;20194;-66
2024/04/07 08:06:49;;;;;;;11.75;2.25;;;;;;;17.62;73.54;101254.97;4993270;28;20546;-66
2024/04/07 08:09:21;;;;;;;12.15;2.15;;;;;;;17.58;72.37;101260.69;4992415;28;20217;-65
2024/04/07 08:11:47;;;;;;;8.38;2.17;;;;;;;17.72;74.03;101262.47;4993543;28;20679;-66
2024/04/07 08:14:12;;;;;;;7.13;1.85;;;;;;;17.44;74.35;101265.19;4993282;28;20197;-65
2024/04/07 08:16:37;;;;;;;12.27;2.10;;;;;;;17.51;74.46;101272.91;4993458;28;20178;-65
2024/04/07 08:19:03;;;;;;;11.13;2.03;;;;;;;17.65;73.33;101265.59;4993718;28;20213;-66
2024/04/07 08:21:28;;;;;;;8.68;1.80;;;;;;;17.70;73.75;101276.13;4994615;28;20196;-66
2024/04/07 08:23:53;;;;;;;10.55;1.88;;;;;;;17.62;72.93;101265.81;4992454;28;20198;-66
2024/04/07 08:26:19;;;;;;;12.85;1.80;;;;;;;17.71;72.94;101277.88;4993005;28;20177;-67
2024/04/07 08:28:44;;;;;;;10.43;2.15;;;;;;;17.98;71.53;101261.66;4993024;28;20181;-65
2024/04/07 08:31:09;;;;;;;7.80;1.80;;;;;;;18.05;72.14;101266.66;4993289;28;20186;-65
2024/04/07 08:33:35;;;;;;;9.98;1.88;;;;;;;18.09;72.11;101270.91;4993196;28;20218;-65
2024/04/07 08:36:00;;;;;;;9.65;1.80;;;;;;;18.00;72.43;101275.97;4975694;28;20181;-65
2024/04/07 08:38:25;;;;;;;9.20;1.90;;;;;;;17.90;72.65;101276.69;4993902;28;20201;-66
2024/04/07 08:40:51;;;;;;;8.57;2.28;;;;;;;17.72;72.75;101276.91;4992502;28;20193;-66
2024/04/07 08:43:18;;;;;;;7.90;1.90;;;;;;;17.72;73.09;101266.06;4993270;28;20182;-66
2024/04/07 08:45:43;;;;;;;6.45;2.13;;;;;;;17.60;73.88;101272.31;4993270;28;20181;-65
2024/04/07 08:48:10;;;;;;;11.73;2.13;;;;;;;17.71;75.02;101279.72;4992239;28;20188;-66
2024/04/07 08:50:35;;;;;;;11.85;2.03;;;;;;;17.80;75.10;101271.84;4991966;28;20252;-66
2024/04/07 08:53:02;;;;;;;7.05;2.10;;;;;;;17.70;76.63;101278.84;4976075;28;20182;-67
2024/04/07 08:55:27;;;;;;;6.68;2.17;;;;;;;17.82;75.63;101283.47;4993082;28;20277;-68
2024/04/07 08:57:53;;;;;;;6.80;1.60;;;;;;;18.12;75.92;101290.53;4991810;28;20721;-68
2024/04/07 09:00:19;;;;;;;6.85;1.88;;;;;;;17.77;77.33;101292.88;4976692;28;20682;-68
2024/04/07 09:02:45;;;;;;;6.25;2.40;;;;;;;18.09;76.93;101293.47;4983264;28;20182;-68
2024/04/07 09:05:10;;;;;;;8.52;2.00;;;;;;;18.23;73.53;101307.94;4995577;28;20182;-67
2024/04/07 09:07:39;;;;;;;8.05;1.20;;;;;;;18.26;73.17;101314.00;4979041;28;20188;-67
2024/04/07 09:10:05;;;;;;;5.80;1.70;;;;;;;17.96;73.89;101320.53;4995143;28;20189;-67
2024/04/07 09:12:30;;;;;;;5.25;1.73;;;;;;;18.03;73.39;101312.00;4994543;28;20182;-67
2024/04/07 09:14:56;;;;;;;6.40;1.52;;;;;;;18.03;71.70;101312.84;4996155;28;20289;-68
2024/04/07 09:17:21;;;;;;;5.90;1.58;;;;;;;18.06;72.53;101322.63;4996623;28;20619;-68
2024/04/07 09:19:46;;;;;;;11.52;1.52;;;;;;;18.35;71.23;101326.06;4996049;28;20225;-66
2024/04/07 09:22:12;;;;;;;4.95;1.60;;;;;;;18.46;70.41;101326.19;4996445;28;20190;-67
2024/04/07 09:24:41;;;;;;;9.18;1.63;;;;;;;18.49;69.75;101330.56;4996453;28;20185;-65
2024/04/07 09:27:09;;;;;;;7.38;1.50;;;;;;;18.44;69.95;101328.16;4996386;28;20204;-68
2024/04/07 09:29:38;;;;;;;7.88;2.00;;;;;;;18.69;70.43;101332.75;4996487;28;20273;-67
2024/04/07 09:32:04;;;;;;;7.65;1.38;;;;;;;18.55;70.68;101341.00;4995032;28;20597;-67
2024/04/07 09:34:31;;;;;;;4.30;1.50;;;;;;;18.60;68.67;101311.69;4996204;28;20566;-67
2024/04/07 09:36:59;;;;;;;3.80;1.33;;;;;;;18.22;68.06;101330.59;4996347;28;20209;-66
2024/04/07 09:39:25;;;;;;;8.27;1.70;;;;;;;18.27;70.58;101341.97;4995516;28;20197;-66
2024/04/07 09:41:52;;;;;;;11.52;2.25;;;;;;;18.47;68.11;101343.38;4995813;28;20265;-66
2024/04/07 09:44:20;;;;;;;5.38;1.23;;;;;;;18.45;67.45;101329.03;4995711;28;20644;-66
2024/04/07 09:46:46;;;;;;;9.20;1.50;;;;;;;18.18;67.56;101347.06;4978100;28;20674;-67
2024/04/07 09:49:11;;;;;;;10.90;1.98;;;;;;;17.66;68.28;101339.63;4978353;28;20194;-67
2024/04/07 09:51:45;;;;;;;9.85;1.98;;;;;;;17.82;69.23;101326.84;4994537;28;20221;-67
2024/04/07 09:54:14;;;;;;;7.57;1.75;;;;;;;17.93;68.89;101331.56;4994372;28;20177;-66
2024/04/07 09:56:41;;;;;;;9.15;2.30;;;;;;;18.35;68.79;101323.38;4994605;28;20201;-67
2024/04/07 09:59:07;;;;;;;11.40;1.80;;;;;;;18.45;67.90;101342.59;4994408;28;20671;-67
2024/04/07 10:01:33;;;;;;;9.43;1.73;;;;;;;18.44;67.62;101330.88;4995576;28;20277;-66
2024/04/07 10:03:59;;;;;;;11.07;1.60;;;;;;;18.59;67.38;101338.91;4995607;28;20248;-66
2024/04/07 10:06:24;;;;;;;5.95;1.63;;;;;;;18.63;67.38;101354.03;4978137;28;20178;-66
2024/04/07 10:08:50;;;;;;;9.35;1.55;;;;;;;18.48;66.71;101345.09;4995965;28;20252;-65
2024/04/07 10:11:19;;;;;;;6.82;1.77;;;;;;;18.44;65.13;101340.88;4995197;28;20201;-67
2024/04/07 10:13:45;;;;;;;10.73;2.38;;;;;;;18.14;63.20;101333.81;4993025;28;20189;-66
2024/04/07 10:16:13;;;;;;;9.02;1.92;;;;;;;17.60;63.75;101340.91;4995288;28;20244;-67
2024/04/07 10:18:40;;;;;;;7.18;1.40;;;;;;;17.66;64.71;101355.91;4994634;28;20213;-68
2024/04/07 10:21:06;;;;;;;7.90;1.50;;;;;;;17.82;65.54;101336.78;4977928;28;20200;-67
2024/04/07 10:23:34;;;;;;;5.13;1.48;;;;;;;18.00;64.64;101330.19;4995125;28;20221;-67
2024/04/07 10:26:06;;;;;;;9.57;1.92;;;;;;;18.17;65.23;101330.91;4976550;28;20563;-66
2024/04/07 10:28:53;;;;;;;7.35;1.75;;;;;;;18.10;64.46;101330.44;5005651;28;20181;-67
2024/04/07 10:31:22;;;;;;;5.10;1.75;;;;;;;18.27;64.22;101328.41;4993928;28;20209;-66
2024/04/07 10:33:49;;;;;;;8.07;2.63;;;;;;;18.28;64.47;101305.75;4994955;28;20196;-69
2024/04/07 10:36:16;;;;;;;7.65;1.77;;;;;;;17.89;64.72;101315.63;4993825;28;20628;-66
2024/04/07 10:38:49;;;;;;;8.85;1.60;;;;;;;18.09;67.00;101336.84;4975988;28;20194;-69
2024/04/07 10:41:17;;;;;;;10.15;1.98;;;;;;;17.70;67.11;101305.94;4993342;28;20542;-66
2024/04/07 10:43:44;;;;;;;12.45;2.15;;;;;;;18.16;68.35;101337.28;4994906;28;20177;-67
2024/04/07 10:46:09;;;;;;;8.82;1.92;;;;;;;18.43;67.15;101342.69;4977468;28;20293;-66
2024/04/07 10:48:35;;;;;;;10.32;1.55;;;;;;;18.29;67.18;101346.34;4977290;28;20268;-67
2024/04/07 10:51:03;;;;;;;10.02;2.08;;;;;;;18.33;66.90;101345.16;4994473;28;20554;-66
2024/04/07 10:53:28;;;;;;;9.00;1.83;;;;;;;18.61;65.98;101339.72;4994363;28;20181;-65
2024/04/07 10:55:54;;;;;;;7.72;1.55;;;;;;;18.61;64.62;101339.72;4993622;28;20182;-67
2024/04/07 10:58:19;;;;;;;4.82;1.50;;;;;;;18.75;63.26;101353.19;4994398;28;20221;-67
2024/04/07 11:00:45;;;;;;;8.23;1.90;;;;;;;18.75;63.51;101341.47;4994157;28;20226;-65
2024/04/07 11:03:10;;;;;;;7.35;1.75;;;;;;;18.67;64.39;101312.13;4994016;28;20178;-65
2024/04/07 11:05:35;;;;;;;7.25;1.60;;;;;;;18.69;64.57;101340.88;4993971;28;20529;-65
2024/04/07 11:08:01;;;;;;;6.72;1.95;;;;;;;18.45;65.12;101320.88;4994312;28;20190;-64
2024/04/07 11:10:39;;;;;;;9.05;1.63;;;;;;;18.78;65.42;101335.81;4976510;28;20324;-65
2024/04/07 11:13:08;;;;;;;8.10;2.10;;;;;;;18.78;65.94;101362.97;4968284;28;20194;-65
2024/04/07 11:15:33;;;;;;;8.77;1.40;;;;;;;18.59;65.59;101334.38;4993741;28;20189;-65